sensor_id;sensor_type;location;lat;lon;timestamp;P1;durP1;ratioP1;P2;durP2;ratioP2
15155;SDS011;7678;50.058;8.306;2023-11-21T00:00:04;10.10;;;3.60;;
15155;SDS011;7678;50.058;8.306;2023-11-21T00:02:38;7.07;;;3.80;;
15155;SDS011;7678;50.058;8.306;2023-11-21T00:05:07;8.20;;;3.63;;
15155;SDS011;7678;50.058;8.306;2023-11-21T00:07:36;8.33;;;3.93;;
15155;SDS011;7678;50.058;8.306;2023-11-21T00:10:07;8.10;;;3.90;;
15155;SDS011;7678;50.058;8.306;2023-11-21T00:12:37;8.17;;;4.17;;
15155;SDS011;7678;50.058;8.306;2023-11-21T00:15:08;7.83;;;4.30;;
15155;SDS011;7678;50.058;8.306;2023-11-21T00:17:38;9.23;;;5.10;;
15155;SDS011;7678;50.058;8.306;2023-11-21T00:20:07;9.53;;;4.47;;
15155;SDS011;7678;50.058;8.306;2023-11-21T00:22:39;8.93;;;4.90;;
15155;SDS011;7678;50.058;8.306;2023-11-21T00:25:09;6.33;;;4.27;;
15155;SDS011;7678;50.058;8.306;2023-11-21T00:27:38;7.30;;;4.33;;
15155;SDS011;7678;50.058;8.306;2023-11-21T00:30:06;9.43;;;4.87;;
15155;SDS011;7678;50.058;8.306;2023-11-21T00:32:35;10.07;;;5.00;;
15155;SDS011;7678;50.058;8.306;2023-11-21T00:35:05;8.20;;;4.83;;
15155;SDS011;7678;50.058;8.306;2023-11-21T00:37:33;8.53;;;4.70;;
15155;SDS011;7678;50.058;8.306;2023-11-21T00:40:02;8.37;;;4.43;;
15155;SDS011;7678;50.058;8.306;2023-11-21T00:42:35;8.43;;;4.23;;
15155;SDS011;7678;50.058;8.306;2023-11-21T00:45:03;11.83;;;4.87;;
15155;SDS011;7678;50.058;8.306;2023-11-21T00:47:32;8.13;;;4.63;;
15155;SDS011;7678;50.058;8.306;2023-11-21T00:50:01;9.43;;;4.80;;
15155;SDS011;7678;50.058;8.306;2023-11-21T00:52:29;10.20;;;5.33;;
15155;SDS011;7678;50.058;8.306;2023-11-21T00:54:57;9.17;;;5.10;;
15155;SDS011;7678;50.058;8.306;2023-11-21T00:57:26;6.50;;;4.70;;
15155;SDS011;7678;50.058;8.306;2023-11-21T00:59:55;6.93;;;5.47;;
15155;SDS011;7678;50.058;8.306;2023-11-21T01:02:24;8.03;;;5.37;;
15155;SDS011;7678;50.058;8.306;2023-11-21T01:04:55;9.47;;;5.87;;
15155;SDS011;7678;50.058;8.306;2023-11-21T01:07:25;7.43;;;5.33;;
15155;SDS011;7678;50.058;8.306;2023-11-21T01:09:54;7.97;;;5.63;;
15155;SDS011;7678;50.058;8.306;2023-11-21T01:12:25;8.33;;;5.97;;
15155;SDS011;7678;50.058;8.306;2023-11-21T01:14:53;8.23;;;5.83;;
15155;SDS011;7678;50.058;8.306;2023-11-21T01:17:26;9.43;;;6.47;;
15155;SDS011;7678;50.058;8.306;2023-11-21T01:19:54;8.20;;;6.67;;
15155;SDS011;7678;50.058;8.306;2023-11-21T01:22:24;9.57;;;6.13;;
15155;SDS011;7678;50.058;8.306;2023-11-21T01:24:52;7.33;;;6.27;;
15155;SDS011;7678;50.058;8.306;2023-11-21T01:27:21;7.23;;;6.47;;
15155;SDS011;7678;50.058;8.306;2023-11-21T01:29:49;9.53;;;6.67;;
15155;SDS011;7678;50.058;8.306;2023-11-21T01:32:21;8.50;;;7.03;;
15155;SDS011;7678;50.058;8.306;2023-11-21T01:34:50;13.23;;;7.47;;
15155;SDS011;7678;50.058;8.306;2023-11-21T01:37:18;11.03;;;7.00;;
15155;SDS011;7678;50.058;8.306;2023-11-21T01:39:48;9.47;;;7.10;;
15155;SDS011;7678;50.058;8.306;2023-11-21T01:42:16;8.77;;;7.33;;
15155;SDS011;7678;50.058;8.306;2023-11-21T01:44:44;8.67;;;7.37;;
15155;SDS011;7678;50.058;8.306;2023-11-21T01:47:12;10.83;;;7.03;;
15155;SDS011;7678;50.058;8.306;2023-11-21T01:49:44;8.47;;;6.80;;
15155;SDS011;7678;50.058;8.306;2023-11-21T01:52:13;9.17;;;7.03;;
15155;SDS011;7678;50.058;8.306;2023-11-21T01:54:42;9.03;;;7.07;;
15155;SDS011;7678;50.058;8.306;2023-11-21T01:57:10;8.73;;;7.37;;
15155;SDS011;7678;50.058;8.306;2023-11-21T01:59:38;8.20;;;6.37;;
15155;SDS011;7678;50.058;8.306;2023-11-21T02:02:10;8.00;;;6.93;;
15155;SDS011;7678;50.058;8.306;2023-11-21T02:04:38;7.53;;;5.93;;
15155;SDS011;7678;50.058;8.306;2023-11-21T02:07:08;6.63;;;5.87;;
15155;SDS011;7678;50.058;8.306;2023-11-21T02:09:36;6.60;;;5.90;;
15155;SDS011;7678;50.058;8.306;2023-11-21T02:12:08;9.80;;;6.33;;
15155;SDS011;7678;50.058;8.306;2023-11-21T02:14:37;9.30;;;6.90;;
15155;SDS011;7678;50.058;8.306;2023-11-21T02:17:05;8.27;;;6.23;;
15155;SDS011;7678;50.058;8.306;2023-11-21T02:19:34;5.33;;;4.67;;
15155;SDS011;7678;50.058;8.306;2023-11-21T02:22:02;5.70;;;4.93;;
15155;SDS011;7678;50.058;8.306;2023-11-21T02:24:34;5.93;;;5.20;;
15155;SDS011;7678;50.058;8.306;2023-11-21T02:27:05;5.43;;;4.30;;
15155;SDS011;7678;50.058;8.306;2023-11-21T02:29:33;5.53;;;4.60;;
15155;SDS011;7678;50.058;8.306;2023-11-21T02:32:01;5.07;;;4.20;;
15155;SDS011;7678;50.058;8.306;2023-11-21T02:34:30;6.17;;;4.57;;
15155;SDS011;7678;50.058;8.306;2023-11-21T02:36:58;6.07;;;4.77;;
15155;SDS011;7678;50.058;8.306;2023-11-21T02:39:26;4.60;;;4.20;;
15155;SDS011;7678;50.058;8.306;2023-11-21T02:41:55;6.43;;;4.23;;
15155;SDS011;7678;50.058;8.306;2023-11-21T02:44:23;4.30;;;3.90;;
15155;SDS011;7678;50.058;8.306;2023-11-21T02:46:52;4.67;;;3.80;;
15155;SDS011;7678;50.058;8.306;2023-11-21T02:49:20;4.80;;;4.30;;
15155;SDS011;7678;50.058;8.306;2023-11-21T02:51:49;5.47;;;4.23;;
15155;SDS011;7678;50.058;8.306;2023-11-21T02:54:17;4.13;;;3.73;;
15155;SDS011;7678;50.058;8.306;2023-11-21T02:56:45;6.63;;;5.07;;
15155;SDS011;7678;50.058;8.306;2023-11-21T02:59:15;5.37;;;4.80;;
15155;SDS011;7678;50.058;8.306;2023-11-21T03:01:43;6.93;;;4.80;;
15155;SDS011;7678;50.058;8.306;2023-11-21T03:04:11;7.73;;;4.93;;
15155;SDS011;7678;50.058;8.306;2023-11-21T03:06:44;7.13;;;5.17;;
15155;SDS011;7678;50.058;8.306;2023-11-21T03:09:12;5.13;;;4.50;;
15155;SDS011;7678;50.058;8.306;2023-11-21T03:11:40;4.90;;;4.40;;
15155;SDS011;7678;50.058;8.306;2023-11-21T03:14:08;5.13;;;4.63;;
15155;SDS011;7678;50.058;8.306;2023-11-21T03:16:38;6.60;;;5.40;;
15155;SDS011;7678;50.058;8.306;2023-11-21T03:19:07;6.40;;;5.63;;
15155;SDS011;7678;50.058;8.306;2023-11-21T03:21:35;7.13;;;6.27;;
15155;SDS011;7678;50.058;8.306;2023-11-21T03:24:04;9.23;;;6.17;;
15155;SDS011;7678;50.058;8.306;2023-11-21T03:26:33;8.60;;;6.67;;
15155;SDS011;7678;50.058;8.306;2023-11-21T03:29:01;8.23;;;6.10;;
15155;SDS011;7678;50.058;8.306;2023-11-21T03:31:31;7.27;;;5.47;;
15155;SDS011;7678;50.058;8.306;2023-11-21T03:34:00;5.93;;;4.97;;
15155;SDS011;7678;50.058;8.306;2023-11-21T03:36:28;7.27;;;5.00;;
15155;SDS011;7678;50.058;8.306;2023-11-21T03:38:56;6.70;;;5.57;;
15155;SDS011;7678;50.058;8.306;2023-11-21T03:41:24;7.17;;;5.90;;
15155;SDS011;7678;50.058;8.306;2023-11-21T03:43:52;6.37;;;5.67;;
15155;SDS011;7678;50.058;8.306;2023-11-21T03:46:21;6.80;;;6.00;;
15155;SDS011;7678;50.058;8.306;2023-11-21T03:48:49;9.20;;;5.83;;
15155;SDS011;7678;50.058;8.306;2023-11-21T03:51:18;8.50;;;5.67;;
15155;SDS011;7678;50.058;8.306;2023-11-21T03:53:46;7.87;;;5.67;;
15155;SDS011;7678;50.058;8.306;2023-11-21T03:56:14;8.80;;;6.07;;
15155;SDS011;7678;50.058;8.306;2023-11-21T03:58:42;7.40;;;5.90;;
15155;SDS011;7678;50.058;8.306;2023-11-21T04:01:15;7.37;;;5.97;;
15155;SDS011;7678;50.058;8.306;2023-11-21T04:03:48;6.87;;;5.60;;
15155;SDS011;7678;50.058;8.306;2023-11-21T04:06:17;8.07;;;6.00;;
15155;SDS011;7678;50.058;8.306;2023-11-21T04:08:46;7.87;;;5.90;;
15155;SDS011;7678;50.058;8.306;2023-11-21T04:11:14;8.90;;;6.13;;
15155;SDS011;7678;50.058;8.306;2023-11-21T04:13:43;10.37;;;6.63;;
15155;SDS011;7678;50.058;8.306;2023-11-21T04:16:12;10.37;;;6.90;;
15155;SDS011;7678;50.058;8.306;2023-11-21T04:18:40;7.57;;;5.30;;
15155;SDS011;7678;50.058;8.306;2023-11-21T04:21:08;8.60;;;6.23;;
15155;SDS011;7678;50.058;8.306;2023-11-21T04:23:38;7.93;;;6.33;;
15155;SDS011;7678;50.058;8.306;2023-11-21T04:26:06;6.60;;;5.53;;
15155;SDS011;7678;50.058;8.306;2023-11-21T04:28:34;9.53;;;7.57;;
15155;SDS011;7678;50.058;8.306;2023-11-21T04:31:02;8.03;;;5.30;;
15155;SDS011;7678;50.058;8.306;2023-11-21T04:33:30;7.07;;;5.83;;
15155;SDS011;7678;50.058;8.306;2023-11-21T04:35:58;6.23;;;5.63;;
15155;SDS011;7678;50.058;8.306;2023-11-21T04:38:27;8.50;;;6.30;;
15155;SDS011;7678;50.058;8.306;2023-11-21T04:40:56;6.10;;;5.53;;
15155;SDS011;7678;50.058;8.306;2023-11-21T04:43:28;8.43;;;7.50;;
15155;SDS011;7678;50.058;8.306;2023-11-21T04:45:57;14.37;;;7.83;;
15155;SDS011;7678;50.058;8.306;2023-11-21T04:48:25;9.67;;;8.00;;
15155;SDS011;7678;50.058;8.306;2023-11-21T04:50:53;9.07;;;7.50;;
15155;SDS011;7678;50.058;8.306;2023-11-21T04:53:22;10.50;;;8.80;;
15155;SDS011;7678;50.058;8.306;2023-11-21T04:55:50;12.63;;;9.07;;
15155;SDS011;7678;50.058;8.306;2023-11-21T04:58:20;10.20;;;8.83;;
15155;SDS011;7678;50.058;8.306;2023-11-21T05:00:48;11.87;;;9.73;;
15155;SDS011;7678;50.058;8.306;2023-11-21T05:03:17;13.63;;;10.03;;
15155;SDS011;7678;50.058;8.306;2023-11-21T05:05:45;15.73;;;10.43;;
15155;SDS011;7678;50.058;8.306;2023-11-21T05:08:14;16.23;;;11.33;;
15155;SDS011;7678;50.058;8.306;2023-11-21T05:10:42;14.83;;;10.90;;
15155;SDS011;7678;50.058;8.306;2023-11-21T05:13:10;15.07;;;11.50;;
15155;SDS011;7678;50.058;8.306;2023-11-21T05:15:39;14.10;;;10.20;;
15155;SDS011;7678;50.058;8.306;2023-11-21T05:18:08;14.33;;;10.00;;
15155;SDS011;7678;50.058;8.306;2023-11-21T05:20:36;15.10;;;10.13;;
15155;SDS011;7678;50.058;8.306;2023-11-21T05:23:05;12.33;;;8.93;;
15155;SDS011;7678;50.058;8.306;2023-11-21T05:25:34;11.20;;;9.33;;
15155;SDS011;7678;50.058;8.306;2023-11-21T05:28:06;14.20;;;10.07;;
15155;SDS011;7678;50.058;8.306;2023-11-21T05:30:34;12.70;;;9.50;;
15155;SDS011;7678;50.058;8.306;2023-11-21T05:33:04;12.73;;;10.10;;
15155;SDS011;7678;50.058;8.306;2023-11-21T05:35:32;13.00;;;9.10;;
15155;SDS011;7678;50.058;8.306;2023-11-21T05:38:00;13.43;;;10.00;;
15155;SDS011;7678;50.058;8.306;2023-11-21T05:40:28;15.17;;;9.33;;
15155;SDS011;7678;50.058;8.306;2023-11-21T05:42:57;14.87;;;9.50;;
15155;SDS011;7678;50.058;8.306;2023-11-21T05:45:25;15.03;;;10.03;;
15155;SDS011;7678;50.058;8.306;2023-11-21T05:47:55;14.43;;;10.37;;
15155;SDS011;7678;50.058;8.306;2023-11-21T05:50:24;13.00;;;8.90;;
15155;SDS011;7678;50.058;8.306;2023-11-21T05:52:53;11.10;;;8.20;;
15155;SDS011;7678;50.058;8.306;2023-11-21T05:55:22;12.07;;;8.00;;
15155;SDS011;7678;50.058;8.306;2023-11-21T05:57:52;10.67;;;7.13;;
15155;SDS011;7678;50.058;8.306;2023-11-21T06:00:21;11.30;;;8.00;;
15155;SDS011;7678;50.058;8.306;2023-11-21T06:02:49;8.57;;;6.83;;
15155;SDS011;7678;50.058;8.306;2023-11-21T06:05:20;11.40;;;7.27;;
15155;SDS011;7678;50.058;8.306;2023-11-21T06:07:53;8.07;;;7.27;;
15155;SDS011;7678;50.058;8.306;2023-11-21T06:10:23;10.53;;;7.87;;
15155;SDS011;7678;50.058;8.306;2023-11-21T06:12:52;7.80;;;6.60;;
15155;SDS011;7678;50.058;8.306;2023-11-21T06:15:20;9.27;;;7.30;;
15155;SDS011;7678;50.058;8.306;2023-11-21T06:17:52;8.27;;;6.87;;
15155;SDS011;7678;50.058;8.306;2023-11-21T06:20:20;7.50;;;6.20;;
15155;SDS011;7678;50.058;8.306;2023-11-21T06:22:50;8.27;;;6.73;;
15155;SDS011;7678;50.058;8.306;2023-11-21T06:25:20;7.23;;;6.53;;
15155;SDS011;7678;50.058;8.306;2023-11-21T06:27:49;6.77;;;5.57;;
15155;SDS011;7678;50.058;8.306;2023-11-21T06:30:20;7.03;;;5.80;;
15155;SDS011;7678;50.058;8.306;2023-11-21T06:32:49;7.03;;;5.77;;
15155;SDS011;7678;50.058;8.306;2023-11-21T06:35:19;7.30;;;5.47;;
15155;SDS011;7678;50.058;8.306;2023-11-21T06:37:47;6.43;;;5.67;;
15155;SDS011;7678;50.058;8.306;2023-11-21T06:40:17;8.80;;;6.10;;
15155;SDS011;7678;50.058;8.306;2023-11-21T06:42:48;7.30;;;6.47;;
15155;SDS011;7678;50.058;8.306;2023-11-21T06:45:17;8.67;;;7.07;;
15155;SDS011;7678;50.058;8.306;2023-11-21T06:47:46;9.77;;;7.00;;
15155;SDS011;7678;50.058;8.306;2023-11-21T06:50:15;13.13;;;7.63;;
15155;SDS011;7678;50.058;8.306;2023-11-21T06:52:43;8.90;;;7.37;;
15155;SDS011;7678;50.058;8.306;2023-11-21T06:55:11;8.70;;;7.80;;
15155;SDS011;7678;50.058;8.306;2023-11-21T06:57:39;12.03;;;8.53;;
15155;SDS011;7678;50.058;8.306;2023-11-21T07:00:09;14.20;;;10.13;;
15155;SDS011;7678;50.058;8.306;2023-11-21T07:02:38;12.57;;;9.83;;
15155;SDS011;7678;50.058;8.306;2023-11-21T07:05:07;14.93;;;10.50;;
15155;SDS011;7678;50.058;8.306;2023-11-21T07:07:35;13.37;;;11.70;;
15155;SDS011;7678;50.058;8.306;2023-11-21T07:10:04;13.77;;;11.10;;
15155;SDS011;7678;50.058;8.306;2023-11-21T07:12:33;13.40;;;11.20;;
15155;SDS011;7678;50.058;8.306;2023-11-21T07:15:01;14.23;;;11.10;;
15155;SDS011;7678;50.058;8.306;2023-11-21T07:17:33;14.97;;;11.73;;
15155;SDS011;7678;50.058;8.306;2023-11-21T07:20:05;13.70;;;11.10;;
15155;SDS011;7678;50.058;8.306;2023-11-21T07:22:35;13.40;;;11.43;;
15155;SDS011;7678;50.058;8.306;2023-11-21T07:25:04;12.00;;;10.37;;
15155;SDS011;7678;50.058;8.306;2023-11-21T07:27:33;16.87;;;11.07;;
15155;SDS011;7678;50.058;8.306;2023-11-21T07:30:02;14.50;;;11.43;;
15155;SDS011;7678;50.058;8.306;2023-11-21T07:32:33;13.80;;;10.70;;
15155;SDS011;7678;50.058;8.306;2023-11-21T07:35:01;12.33;;;10.80;;
15155;SDS011;7678;50.058;8.306;2023-11-21T07:37:30;15.17;;;10.80;;
15155;SDS011;7678;50.058;8.306;2023-11-21T07:40:01;10.83;;;9.67;;
15155;SDS011;7678;50.058;8.306;2023-11-21T07:42:30;14.70;;;10.63;;
15155;SDS011;7678;50.058;8.306;2023-11-21T07:44:59;11.17;;;8.90;;
15155;SDS011;7678;50.058;8.306;2023-11-21T07:47:29;11.97;;;10.00;;
15155;SDS011;7678;50.058;8.306;2023-11-21T07:50:03;10.47;;;9.10;;
15155;SDS011;7678;50.058;8.306;2023-11-21T07:52:31;11.83;;;9.00;;
15155;SDS011;7678;50.058;8.306;2023-11-21T07:55:00;11.73;;;9.73;;
15155;SDS011;7678;50.058;8.306;2023-11-21T07:57:28;10.43;;;8.30;;
15155;SDS011;7678;50.058;8.306;2023-11-21T07:59:56;10.13;;;8.47;;
15155;SDS011;7678;50.058;8.306;2023-11-21T08:02:24;9.70;;;8.63;;
15155;SDS011;7678;50.058;8.306;2023-11-21T08:04:53;10.23;;;7.57;;
15155;SDS011;7678;50.058;8.306;2023-11-21T08:07:24;8.57;;;7.43;;
15155;SDS011;7678;50.058;8.306;2023-11-21T08:09:52;9.60;;;7.30;;
15155;SDS011;7678;50.058;8.306;2023-11-21T08:12:20;7.37;;;6.43;;
15155;SDS011;7678;50.058;8.306;2023-11-21T08:14:50;9.53;;;6.77;;
15155;SDS011;7678;50.058;8.306;2023-11-21T08:17:18;10.57;;;6.97;;
15155;SDS011;7678;50.058;8.306;2023-11-21T08:19:47;7.83;;;6.10;;
15155;SDS011;7678;50.058;8.306;2023-11-21T08:22:17;11.73;;;6.73;;
15155;SDS011;7678;50.058;8.306;2023-11-21T08:24:48;7.10;;;5.57;;
15155;SDS011;7678;50.058;8.306;2023-11-21T08:27:22;7.57;;;5.93;;
15155;SDS011;7678;50.058;8.306;2023-11-21T08:29:50;9.30;;;5.50;;
15155;SDS011;7678;50.058;8.306;2023-11-21T08:32:18;7.17;;;5.20;;
15155;SDS011;7678;50.058;8.306;2023-11-21T08:34:46;6.83;;;5.07;;
15155;SDS011;7678;50.058;8.306;2023-11-21T08:37:18;8.43;;;5.37;;
15155;SDS011;7678;50.058;8.306;2023-11-21T08:39:47;7.80;;;5.33;;
15155;SDS011;7678;50.058;8.306;2023-11-21T08:42:16;6.47;;;4.83;;
15155;SDS011;7678;50.058;8.306;2023-11-21T08:44:45;6.20;;;4.63;;
15155;SDS011;7678;50.058;8.306;2023-11-21T08:47:14;9.17;;;4.97;;
15155;SDS011;7678;50.058;8.306;2023-11-21T08:49:42;6.13;;;4.57;;
15155;SDS011;7678;50.058;8.306;2023-11-21T08:52:12;6.83;;;4.80;;
15155;SDS011;7678;50.058;8.306;2023-11-21T08:54:41;8.23;;;4.50;;
15155;SDS011;7678;50.058;8.306;2023-11-21T08:57:11;6.37;;;3.83;;
15155;SDS011;7678;50.058;8.306;2023-11-21T08:59:40;6.40;;;4.33;;
15155;SDS011;7678;50.058;8.306;2023-11-21T09:02:08;10.63;;;4.03;;
15155;SDS011;7678;50.058;8.306;2023-11-21T09:04:36;7.07;;;4.30;;
15155;SDS011;7678;50.058;8.306;2023-11-21T09:07:05;7.80;;;4.73;;
15155;SDS011;7678;50.058;8.306;2023-11-21T09:09:34;7.00;;;3.93;;
15155;SDS011;7678;50.058;8.306;2023-11-21T09:12:02;7.60;;;4.27;;
15155;SDS011;7678;50.058;8.306;2023-11-21T09:14:32;9.00;;;4.40;;
15155;SDS011;7678;50.058;8.306;2023-11-21T09:17:00;7.67;;;4.77;;
15155;SDS011;7678;50.058;8.306;2023-11-21T09:19:28;5.27;;;4.03;;
15155;SDS011;7678;50.058;8.306;2023-11-21T09:21:57;4.60;;;3.90;;
15155;SDS011;7678;50.058;8.306;2023-11-21T09:24:25;5.67;;;3.70;;
15155;SDS011;7678;50.058;8.306;2023-11-21T09:26:53;7.83;;;4.40;;
15155;SDS011;7678;50.058;8.306;2023-11-21T09:29:21;6.63;;;3.80;;
15155;SDS011;7678;50.058;8.306;2023-11-21T09:31:51;7.23;;;4.10;;
15155;SDS011;7678;50.058;8.306;2023-11-21T09:34:21;7.23;;;4.07;;
15155;SDS011;7678;50.058;8.306;2023-11-21T09:36:49;9.93;;;4.37;;
15155;SDS011;7678;50.058;8.306;2023-11-21T09:39:17;8.57;;;4.10;;
15155;SDS011;7678;50.058;8.306;2023-11-21T09:41:46;7.60;;;4.93;;
15155;SDS011;7678;50.058;8.306;2023-11-21T09:44:20;6.13;;;4.37;;
15155;SDS011;7678;50.058;8.306;2023-11-21T09:47:01;7.33;;;4.30;;
15155;SDS011;7678;50.058;8.306;2023-11-21T09:49:30;5.17;;;3.80;;
15155;SDS011;7678;50.058;8.306;2023-11-21T09:52:02;5.57;;;3.80;;
15155;SDS011;7678;50.058;8.306;2023-11-21T09:54:32;6.07;;;3.80;;
15155;SDS011;7678;50.058;8.306;2023-11-21T09:57:01;6.50;;;4.63;;
15155;SDS011;7678;50.058;8.306;2023-11-21T09:59:32;5.37;;;4.00;;
15155;SDS011;7678;50.058;8.306;2023-11-21T10:02:01;10.57;;;4.20;;
15155;SDS011;7678;50.058;8.306;2023-11-21T10:04:30;9.63;;;4.37;;
15155;SDS011;7678;50.058;8.306;2023-11-21T10:07:02;9.07;;;4.30;;
15155;SDS011;7678;50.058;8.306;2023-11-21T10:09:31;7.97;;;4.30;;
15155;SDS011;7678;50.058;8.306;2023-11-21T10:11:59;7.73;;;4.03;;
15155;SDS011;7678;50.058;8.306;2023-11-21T10:14:29;7.83;;;4.50;;
15155;SDS011;7678;50.058;8.306;2023-11-21T10:16:58;7.23;;;4.53;;
15155;SDS011;7678;50.058;8.306;2023-11-21T10:19:28;8.63;;;4.67;;
15155;SDS011;7678;50.058;8.306;2023-11-21T10:21:56;5.60;;;4.17;;
15155;SDS011;7678;50.058;8.306;2023-11-21T10:24:26;29.90;;;19.60;;
15155;SDS011;7678;50.058;8.306;2023-11-21T10:27:06;6.77;;;5.07;;
15155;SDS011;7678;50.058;8.306;2023-11-21T10:29:34;8.73;;;4.00;;
15155;SDS011;7678;50.058;8.306;2023-11-21T10:32:03;6.07;;;3.93;;
15155;SDS011;7678;50.058;8.306;2023-11-21T10:34:33;10.30;;;3.83;;
15155;SDS011;7678;50.058;8.306;2023-11-21T10:37:10;7.23;;;3.97;;
15155;SDS011;7678;50.058;8.306;2023-11-21T10:39:39;7.00;;;4.00;;
15155;SDS011;7678;50.058;8.306;2023-11-21T10:42:10;10.27;;;4.33;;
15155;SDS011;7678;50.058;8.306;2023-11-21T10:44:38;5.73;;;3.53;;
15155;SDS011;7678;50.058;8.306;2023-11-21T10:47:10;9.10;;;4.50;;
15155;SDS011;7678;50.058;8.306;2023-11-21T10:49:41;17.80;;;7.23;;
15155;SDS011;7678;50.058;8.306;2023-11-21T10:52:10;10.00;;;4.93;;
15155;SDS011;7678;50.058;8.306;2023-11-21T10:54:43;9.47;;;4.10;;
15155;SDS011;7678;50.058;8.306;2023-11-21T10:57:11;7.97;;;5.17;;
15155;SDS011;7678;50.058;8.306;2023-11-21T10:59:46;12.83;;;5.30;;
15155;SDS011;7678;50.058;8.306;2023-11-21T11:02:19;9.30;;;5.17;;
15155;SDS011;7678;50.058;8.306;2023-11-21T11:04:53;11.93;;;3.57;;
15155;SDS011;7678;50.058;8.306;2023-11-21T11:07:24;14.77;;;5.23;;
15155;SDS011;7678;50.058;8.306;2023-11-21T11:09:56;10.27;;;5.63;;
15155;SDS011;7678;50.058;8.306;2023-11-21T11:12:26;18.37;;;8.57;;
15155;SDS011;7678;50.058;8.306;2023-11-21T11:14:55;7.53;;;3.10;;
15155;SDS011;7678;50.058;8.306;2023-11-21T11:17:25;12.57;;;7.23;;
15155;SDS011;7678;50.058;8.306;2023-11-21T11:19:55;5.13;;;3.60;;
15155;SDS011;7678;50.058;8.306;2023-11-21T11:22:27;9.43;;;3.87;;
15155;SDS011;7678;50.058;8.306;2023-11-21T11:25:06;8.10;;;5.27;;
15155;SDS011;7678;50.058;8.306;2023-11-21T11:27:52;10.97;;;6.50;;
15155;SDS011;7678;50.058;8.306;2023-11-21T11:30:26;8.43;;;3.80;;
15155;SDS011;7678;50.058;8.306;2023-11-21T11:33:07;5.50;;;3.73;;
15155;SDS011;7678;50.058;8.306;2023-11-21T11:35:45;5.60;;;3.43;;
15155;SDS011;7678;50.058;8.306;2023-11-21T11:38:20;5.00;;;2.90;;
15155;SDS011;7678;50.058;8.306;2023-11-21T11:40:52;6.67;;;3.17;;
15155;SDS011;7678;50.058;8.306;2023-11-21T11:43:26;5.13;;;3.10;;
15155;SDS011;7678;50.058;8.306;2023-11-21T11:45:55;4.73;;;2.90;;
15155;SDS011;7678;50.058;8.306;2023-11-21T11:48:28;6.63;;;3.13;;
15155;SDS011;7678;50.058;8.306;2023-11-21T11:51:04;4.10;;;2.67;;
15155;SDS011;7678;50.058;8.306;2023-11-21T11:53:35;7.17;;;3.80;;
15155;SDS011;7678;50.058;8.306;2023-11-21T11:56:24;6.40;;;3.30;;
15155;SDS011;7678;50.058;8.306;2023-11-21T11:58:55;5.90;;;3.00;;
15155;SDS011;7678;50.058;8.306;2023-11-21T12:01:25;6.33;;;3.40;;
15155;SDS011;7678;50.058;8.306;2023-11-21T12:07:03;4.87;;;3.30;;
15155;SDS011;7678;50.058;8.306;2023-11-21T12:09:33;5.50;;;3.07;;
15155;SDS011;7678;50.058;8.306;2023-11-21T12:12:02;7.63;;;2.90;;
15155;SDS011;7678;50.058;8.306;2023-11-21T12:14:30;6.40;;;2.83;;
15155;SDS011;7678;50.058;8.306;2023-11-21T12:16:58;7.03;;;3.17;;
15155;SDS011;7678;50.058;8.306;2023-11-21T12:19:28;6.37;;;3.50;;
15155;SDS011;7678;50.058;8.306;2023-11-21T12:21:57;6.80;;;3.47;;
15155;SDS011;7678;50.058;8.306;2023-11-21T12:24:31;5.47;;;3.00;;
15155;SDS011;7678;50.058;8.306;2023-11-21T12:26:59;5.47;;;2.97;;
15155;SDS011;7678;50.058;8.306;2023-11-21T12:29:27;7.57;;;3.17;;
15155;SDS011;7678;50.058;8.306;2023-11-21T12:31:56;5.57;;;3.50;;
15155;SDS011;7678;50.058;8.306;2023-11-21T12:34:24;4.93;;;3.30;;
15155;SDS011;7678;50.058;8.306;2023-11-21T12:36:52;5.00;;;3.10;;
15155;SDS011;7678;50.058;8.306;2023-11-21T12:39:26;5.50;;;3.00;;
15155;SDS011;7678;50.058;8.306;2023-11-21T12:41:56;5.70;;;3.20;;
15155;SDS011;7678;50.058;8.306;2023-11-21T12:44:25;5.83;;;3.27;;
15155;SDS011;7678;50.058;8.306;2023-11-21T12:46:53;7.07;;;3.37;;
15155;SDS011;7678;50.058;8.306;2023-11-21T12:49:22;6.60;;;3.03;;
15155;SDS011;7678;50.058;8.306;2023-11-21T12:51:50;8.30;;;3.73;;
15155;SDS011;7678;50.058;8.306;2023-11-21T12:54:20;6.30;;;3.27;;
15155;SDS011;7678;50.058;8.306;2023-11-21T12:56:49;9.80;;;3.40;;
15155;SDS011;7678;50.058;8.306;2023-11-21T12:59:21;5.37;;;3.60;;
15155;SDS011;7678;50.058;8.306;2023-11-21T13:01:50;11.60;;;4.23;;
15155;SDS011;7678;50.058;8.306;2023-11-21T13:04:18;6.80;;;4.27;;
15155;SDS011;7678;50.058;8.306;2023-11-21T13:06:46;5.97;;;3.93;;
15155;SDS011;7678;50.058;8.306;2023-11-21T13:09:14;7.13;;;4.30;;
15155;SDS011;7678;50.058;8.306;2023-11-21T13:11:48;6.70;;;4.97;;
15155;SDS011;7678;50.058;8.306;2023-11-21T13:14:16;7.97;;;4.80;;
15155;SDS011;7678;50.058;8.306;2023-11-21T13:16:46;9.07;;;4.50;;
15155;SDS011;7678;50.058;8.306;2023-11-21T13:19:14;7.93;;;4.80;;
15155;SDS011;7678;50.058;8.306;2023-11-21T13:21:42;7.60;;;4.50;;
15155;SDS011;7678;50.058;8.306;2023-11-21T13:24:10;5.97;;;4.23;;
15155;SDS011;7678;50.058;8.306;2023-11-21T13:26:38;10.47;;;5.10;;
15155;SDS011;7678;50.058;8.306;2023-11-21T13:29:07;5.67;;;3.80;;
15155;SDS011;7678;50.058;8.306;2023-11-21T13:31:39;10.17;;;5.00;;
15155;SDS011;7678;50.058;8.306;2023-11-21T13:34:09;5.43;;;3.90;;
15155;SDS011;7678;50.058;8.306;2023-11-21T13:36:46;7.17;;;3.90;;
15155;SDS011;7678;50.058;8.306;2023-11-21T13:39:14;4.57;;;3.87;;
15155;SDS011;7678;50.058;8.306;2023-11-21T13:41:44;7.50;;;4.47;;
15155;SDS011;7678;50.058;8.306;2023-11-21T13:44:14;5.87;;;4.10;;
15155;SDS011;7678;50.058;8.306;2023-11-21T13:46:52;6.93;;;4.17;;
15155;SDS011;7678;50.058;8.306;2023-11-21T13:49:24;7.27;;;4.10;;
15155;SDS011;7678;50.058;8.306;2023-11-21T13:51:53;5.17;;;4.13;;
15155;SDS011;7678;50.058;8.306;2023-11-21T13:54:22;6.33;;;4.00;;
15155;SDS011;7678;50.058;8.306;2023-11-21T13:56:51;6.17;;;4.43;;
15155;SDS011;7678;50.058;8.306;2023-11-21T13:59:21;9.10;;;4.97;;
15155;SDS011;7678;50.058;8.306;2023-11-21T14:01:52;6.20;;;4.77;;
15155;SDS011;7678;50.058;8.306;2023-11-21T14:04:27;6.80;;;4.70;;
15155;SDS011;7678;50.058;8.306;2023-11-21T14:07:21;8.00;;;4.73;;
15155;SDS011;7678;50.058;8.306;2023-11-21T14:09:57;6.97;;;4.57;;
15155;SDS011;7678;50.058;8.306;2023-11-21T14:12:25;7.63;;;4.93;;
15155;SDS011;7678;50.058;8.306;2023-11-21T14:14:54;6.63;;;4.10;;
15155;SDS011;7678;50.058;8.306;2023-11-21T14:17:23;8.83;;;4.30;;
15155;SDS011;7678;50.058;8.306;2023-11-21T14:19:52;7.43;;;4.93;;
15155;SDS011;7678;50.058;8.306;2023-11-21T14:22:22;11.60;;;4.97;;
15155;SDS011;7678;50.058;8.306;2023-11-21T14:24:52;7.30;;;4.50;;
15155;SDS011;7678;50.058;8.306;2023-11-21T14:27:22;6.57;;;4.60;;
15155;SDS011;7678;50.058;8.306;2023-11-21T14:29:50;9.70;;;4.60;;
15155;SDS011;7678;50.058;8.306;2023-11-21T14:32:19;6.63;;;4.50;;
15155;SDS011;7678;50.058;8.306;2023-11-21T14:34:48;8.47;;;5.00;;
15155;SDS011;7678;50.058;8.306;2023-11-21T14:37:18;8.03;;;4.43;;
15155;SDS011;7678;50.058;8.306;2023-11-21T14:39:46;11.00;;;7.40;;
15155;SDS011;7678;50.058;8.306;2023-11-21T14:42:16;10.17;;;5.77;;
15155;SDS011;7678;50.058;8.306;2023-11-21T14:44:51;7.83;;;5.70;;
15155;SDS011;7678;50.058;8.306;2023-11-21T14:47:21;13.87;;;7.33;;
15155;SDS011;7678;50.058;8.306;2023-11-21T14:49:53;12.23;;;5.93;;
15155;SDS011;7678;50.058;8.306;2023-11-21T14:52:24;8.60;;;5.97;;
15155;SDS011;7678;50.058;8.306;2023-11-21T14:55:01;8.87;;;5.10;;
15155;SDS011;7678;50.058;8.306;2023-11-21T14:57:56;11.10;;;4.60;;
15155;SDS011;7678;50.058;8.306;2023-11-21T15:00:28;6.27;;;4.77;;
15155;SDS011;7678;50.058;8.306;2023-11-21T15:03:12;9.13;;;4.73;;
15155;SDS011;7678;50.058;8.306;2023-11-21T15:06:04;8.50;;;4.93;;
15155;SDS011;7678;50.058;8.306;2023-11-21T15:08:50;10.47;;;4.73;;
15155;SDS011;7678;50.058;8.306;2023-11-21T15:11:43;6.63;;;4.60;;
15155;SDS011;7678;50.058;8.306;2023-11-21T15:14:10;7.37;;;4.87;;
15155;SDS011;7678;50.058;8.306;2023-11-21T15:16:42;9.43;;;6.40;;